Saturday, December 15, 2018, 11:01 PM EST
Back to Local

K1P1, Plymouth, Plymouth Municipal Airport

Location: Plymouth, NH, United States Lat: 43.779
Local Time: 11:01 PM EST ( 4:01 GMT) Lon: -71.754
Time Zone: US/Eastern Elev: 505 ft

Show me the last for .
Show Decoded

2018-12-15 22:35 METAR K1P1 160335Z AUTO 00000KT 7SM CLR M05/M05 A3027 RMK AO2 T10471052 =
2018-12-15 22:15 METAR K1P1 160315Z AUTO 00000KT 10SM CLR M04/M04 A3028 RMK AO2 T10411045 =
2018-12-15 21:55 METAR K1P1 160255Z AUTO 00000KT 10SM CLR M04/M05 A3027 RMK AO2 T10411046 =
2018-12-15 21:35 METAR K1P1 160235Z AUTO 00000KT 10SM CLR M04/M04 A3027 RMK AO2 T10391045 =
2018-12-15 21:15 METAR K1P1 160215Z AUTO 00000KT 10SM CLR M04/M04 A3026 RMK AO2 T10361044 =
2018-12-15 20:55 METAR K1P1 160155Z AUTO 00000KT 10SM CLR M03/M04 A3026 RMK AO2 T10331040 =
2018-12-15 20:35 METAR K1P1 160135Z AUTO 00000KT 10SM CLR M03/M04 A3025 RMK AO2 T10291038 =
2018-12-15 20:15 METAR K1P1 160115Z AUTO 00000KT 10SM CLR M03/M03 A3024 RMK AO2 T10261034 =
2018-12-15 19:55 METAR K1P1 160055Z AUTO 00000KT 10SM CLR M02/M03 A3023 RMK AO2 T10251035 =
2018-12-15 19:35 METAR K1P1 160035Z AUTO 00000KT 10SM CLR M02/M03 A3023 RMK AO2 T10201034 =
2018-12-15 19:15 METAR K1P1 160015Z AUTO 00000KT 10SM CLR M02/M03 A3024 RMK AO2 T10181033 =
2018-12-15 18:55 METAR K1P1 152355Z AUTO 00000KT 10SM CLR M02/M03 A3023 RMK AO2 T10161032 10065
                 21017 =
2018-12-15 18:35 METAR K1P1 152335Z AUTO 00000KT 10SM CLR M01/M03 A3023 RMK AO2 T10121031 =
2018-12-15 18:15 METAR K1P1 152315Z AUTO 00000KT 10SM CLR M01/M03 A3023 RMK AO2 T10091028 =
2018-12-15 17:55 METAR K1P1 152255Z AUTO 00000KT 10SM CLR 00/M03 A3023 RMK AO2 T10031029 =
2018-12-15 17:35 METAR K1P1 152235Z AUTO 00000KT 10SM CLR 00/M03 A3022 RMK AO2 T00001028 =
2018-12-15 17:15 METAR K1P1 152215Z AUTO 00000KT 10SM CLR 01/M03 A3022 RMK AO2 T00051026 =
2018-12-15 16:55 METAR K1P1 152155Z AUTO 00000KT 10SM CLR 01/M03 A3021 RMK AO2 T00101026 =
2018-12-15 16:35 METAR K1P1 152135Z AUTO 00000KT 10SM CLR 03/M03 A3021 RMK AO2 T00301027 =
2018-12-15 16:15 METAR K1P1 152115Z AUTO 31005KT 10SM CLR 03/M03 A3020 RMK AO2 T00331026 =
2018-12-15 15:55 METAR K1P1 152055Z AUTO 30004KT 10SM CLR 04/M03 A3020 RMK AO2 T00371027 =
2018-12-15 15:35 METAR K1P1 152035Z AUTO 29003KT 10SM CLR 04/M03 A3020 RMK AO2 T00421027 =
2018-12-15 15:15 METAR K1P1 152015Z AUTO 30007KT 10SM CLR 05/M03 A3020 RMK AO2 T00451026 =
2018-12-15 14:55 METAR K1P1 151955Z AUTO 28003KT 10SM CLR 05/M03 A3019 RMK AO2 T00471027 =
2018-12-15 14:35 METAR K1P1 151935Z AUTO 29004KT 10SM CLR 05/M02 A3018 RMK AO2 T00481025 =
2018-12-15 14:15 METAR K1P1 151915Z AUTO 30003KT 10SM CLR 05/M02 A3018 RMK AO2 T00501025 =
2018-12-15 13:55 METAR K1P1 151855Z AUTO 29006KT 10SM CLR 05/M02 A3018 RMK AO2 T00521024 =
2018-12-15 13:15 METAR K1P1 151815Z AUTO 32005KT 10SM CLR 06/M02 A3017 RMK AO2 T00561021 =
2018-12-15 12:55 METAR K1P1 151755Z AUTO 32005KT 10SM CLR 07/M01 A3016 RMK AO2 T00651015 10066
                 21046 =
2018-12-15 12:35 METAR K1P1 151735Z AUTO 29007KT 10SM CLR 07/M01 A3015 RMK AO2 T00651011 =
2018-12-15 12:15 METAR K1P1 151715Z AUTO 31010KT 10SM CLR 07/M01 A3015 RMK AO2 T00651007 =
2018-12-15 11:55 METAR K1P1 151655Z AUTO 31011G14KT 10SM CLR 06/00 A3015 RMK AO2 T00631004 =
2018-12-15 11:35 METAR K1P1 151635Z AUTO 32012G16KT 10SM CLR 06/00 A3016 RMK AO2 T00610000 =
2018-12-15 11:15 METAR K1P1 151615Z AUTO 30006KT 10SM CLR 05/01 A3016 RMK AO2 T00540009 =
2018-12-15 10:55 METAR K1P1 151555Z AUTO 30005KT 10SM CLR 05/01 A3016 RMK AO2 T00490010 =
2018-12-15 10:35 METAR K1P1 151535Z AUTO 30006KT 10SM SCT034 02/00 A3016 RMK AO2 T00171003 =
2018-12-15 10:15 METAR K1P1 151515Z AUTO 00000KT 10SM SCT030 BKN037 00/M02 A3018 RMK AO2
                 T10011020 =
2018-12-15 09:55 METAR K1P1 151455Z AUTO 00000KT 10SM BKN034 BKN040 M01/M03 A3017 RMK AO2
                 T10121027 =
2018-12-15 09:35 METAR K1P1 151435Z AUTO 00000KT 10SM SCT034 M02/M03 A3017 RMK AO2 T10201029 =
2018-12-15 09:15 METAR K1P1 151415Z AUTO 00000KT 10SM SCT034 M02/M03 A3016 RMK AO2 T10221028 =
2018-12-15 08:55 METAR K1P1 151355Z AUTO 00000KT 7SM CLR M03/M04 A3016 RMK AO2 T10331037 =
2018-12-15 08:35 METAR K1P1 151335Z AUTO 00000KT 7SM CLR M04/M04 A3016 RMK AO2 T10401045 =
2018-12-15 08:15 METAR K1P1 151315Z AUTO 00000KT 7SM CLR M04/M05 A3015 RMK AO2 T10431047 =
2018-12-15 07:55 METAR K1P1 151255Z AUTO 00000KT 7SM CLR M04/M04 A3015 RMK AO2 T10401044 =
2018-12-15 07:35 METAR K1P1 151235Z AUTO 00000KT 7SM SCT037 M04/M05 A3015 RMK AO2 T10411046 =
2018-12-15 07:15 METAR K1P1 151215Z AUTO 00000KT 10SM BKN037 M04/M04 A3014 RMK AO2 T10381043 =
2018-12-15 06:55 METAR K1P1 151155Z AUTO 00000KT 10SM BKN039 M04/M04 A3014 RMK AO2 T10381042
                 11005 21040 =
2018-12-15 06:35 METAR K1P1 151135Z AUTO 00000KT 10SM SCT037 M04/M04 A3014 RMK AO2 T10391043 =
2018-12-15 06:15 METAR K1P1 151115Z AUTO 00000KT 10SM SCT035 M04/M04 A3013 RMK AO2 T10381043 =
2018-12-15 05:55 METAR K1P1 151055Z AUTO 00000KT 10SM CLR M04/M04 A3012 RMK AO2 T10401045 =
2018-12-15 05:35 METAR K1P1 151035Z AUTO 00000KT 10SM CLR M04/M04 A3011 RMK AO2 T10391044 =
2018-12-15 05:15 METAR K1P1 151015Z AUTO 00000KT 10SM CLR M04/M04 A3011 RMK AO2 T10361042 =
2018-12-15 04:55 METAR K1P1 150955Z AUTO 00000KT 10SM CLR M04/M04 A3011 RMK AO2 T10371044 =
2018-12-15 04:35 METAR K1P1 150935Z AUTO 00000KT 10SM CLR M03/M04 A3010 RMK AO2 T10321039 =
2018-12-15 04:15 METAR K1P1 150915Z AUTO 00000KT 10SM SCT040 M03/M04 A3010 RMK AO2 T10331039 =
2018-12-15 03:55 METAR K1P1 150855Z AUTO 00000KT 10SM BKN040 M03/M04 A3011 RMK AO2 T10301036 =
2018-12-15 03:35 METAR K1P1 150835Z AUTO 00000KT 10SM CLR M03/M04 A3011 RMK AO2 T10281036 =
2018-12-15 03:15 METAR K1P1 150815Z AUTO 00000KT 10SM CLR M03/M04 A3011 RMK AO2 T10281036 =
2018-12-15 02:55 METAR K1P1 150755Z AUTO 00000KT 10SM CLR M03/M04 A3012 RMK AO2 T10301040 =
2018-12-15 02:35 METAR K1P1 150735Z AUTO 00000KT 10SM CLR M02/M03 A3013 RMK AO2 T10221032 =
2018-12-15 02:15 METAR K1P1 150715Z AUTO 00000KT 10SM SCT036 M02/M03 A3014 RMK AO2 T10201033 =
2018-12-15 01:55 METAR K1P1 150655Z AUTO 00000KT 10SM BKN036 M01/M03 A3015 RMK AO2 T10151028 =
2018-12-15 01:35 METAR K1P1 150635Z AUTO 00000KT 10SM SCT029 SCT036 M01/M03 A3015 RMK AO2
                 T10141029 =
2018-12-15 01:15 METAR K1P1 150615Z AUTO 00000KT 10SM SCT020 SCT027 SCT034 M01/M03 A3014 RMK AO2
                 T10101026 =
2018-12-15 00:55 METAR K1P1 150555Z AUTO 00000KT 10SM SCT021 SCT029 BKN034 00/M02 A3014 RMK AO2
                 T10041021 10000 21004 =
2018-12-15 00:35 METAR K1P1 150535Z AUTO 00000KT 10SM SCT021 OVC034 00/M02 A3015 RMK AO2
                 T10011020 =
2018-12-15 00:15 METAR K1P1 150515Z AUTO 00000KT 10SM SCT021 OVC032 00/M02 A3015 RMK AO2
                 T10011022 =
2018-12-14 23:55 METAR K1P1 150455Z AUTO 00000KT 10SM SCT032 OVC100 00/M02 A3016 RMK AO2
                 T10011022 =
2018-12-14 23:35 METAR K1P1 150435Z AUTO 00000KT 10SM SCT033 SCT080 OVC100 00/M02 A3016 RMK AO2
                 T10021021 =
2018-12-14 23:15 METAR K1P1 150415Z AUTO 00000KT 10SM SCT019 BKN035 OVC075 00/M02 A3017 RMK AO2
                 T00001021 =

Support USWX by starting your Amazon purchase here.